createdAt,value
2022-12-23T00:01:52.842Z,5.70
2022-12-23T00:04:24.490Z,5.70
2022-12-23T00:06:56.310Z,5.70
2022-12-23T00:09:23.089Z,5.80
2022-12-23T00:12:13.155Z,5.80
2022-12-23T00:14:58.603Z,5.80
2022-12-23T00:17:27.753Z,5.80
2022-12-23T00:19:57.232Z,5.80
2022-12-23T00:22:42.856Z,5.80
2022-12-23T00:25:09.904Z,5.80
2022-12-23T00:27:38.951Z,5.90
2022-12-23T00:30:06.878Z,5.90
2022-12-23T00:32:36.357Z,5.90
2022-12-23T00:35:03.230Z,6.00
2022-12-23T00:37:33.080Z,6.00
2022-12-23T00:40:32.021Z,6.00
2022-12-23T00:42:59.660Z,6.00
2022-12-23T00:45:26.542Z,6.10
2022-12-23T00:48:11.615Z,6.00
2022-12-23T00:50:39.252Z,6.00
2022-12-23T00:53:06.857Z,6.00
2022-12-23T00:55:36.090Z,6.00
2022-12-23T00:58:02.882Z,6.00
2022-12-23T01:00:48.108Z,6.10
2022-12-23T01:03:33.696Z,6.10
2022-12-23T01:06:01.112Z,6.00
2022-12-23T01:08:28.001Z,6.00
2022-12-23T01:10:54.826Z,6.00
2022-12-23T01:13:21.767Z,6.10
2022-12-23T01:15:48.615Z,6.00
2022-12-23T01:18:18.266Z,6.00
2022-12-23T01:20:47.614Z,6.00
2022-12-23T01:23:17.250Z,6.00
2022-12-23T01:25:44.286Z,6.00
2022-12-23T01:28:13.624Z,6.10
2022-12-23T01:30:40.384Z,6.10
2022-12-23T01:33:07.235Z,6.10
2022-12-23T01:35:34.034Z,6.10
2022-12-23T01:38:00.805Z,6.10
2022-12-23T01:40:27.622Z,6.00
2022-12-23T01:42:54.449Z,6.00
2022-12-23T01:45:28.505Z,5.90
2022-12-23T01:47:59.428Z,6.00
2022-12-23T01:50:28.608Z,6.10
2022-12-23T01:53:13.962Z,6.10
2022-12-23T01:56:11.559Z,6.10
2022-12-23T01:58:41.334Z,6.10
2022-12-23T02:01:26.642Z,6.10
2022-12-23T02:03:56.191Z,6.10
2022-12-23T02:07:01.297Z,6.10
2022-12-23T02:09:35.764Z,6.10
2022-12-23T02:12:14.603Z,6.10
2022-12-23T02:15:31.445Z,6.10
2022-12-23T02:18:04.309Z,6.10
2022-12-23T02:21:01.960Z,6.00
2022-12-23T02:24:12.442Z,6.00
2022-12-23T02:27:10.044Z,6.00
2022-12-23T02:29:46.632Z,6.10
2022-12-23T02:32:18.430Z,6.10
2022-12-23T02:34:51.410Z,6.10
2022-12-23T02:37:25.587Z,6.20
2022-12-23T02:40:04.671Z,6.10
2022-12-23T02:42:39.864Z,6.20
2022-12-23T02:45:09.679Z,6.20
2022-12-23T02:47:51.174Z,6.10
2022-12-23T02:50:20.628Z,6.10
2022-12-23T02:52:49.957Z,6.20
2022-12-23T02:55:22.594Z,6.30
2022-12-23T02:57:49.773Z,6.30
2022-12-23T03:00:17.481Z,6.30
2022-12-23T03:02:46.545Z,6.20
2022-12-23T03:05:35.389Z,6.20
2022-12-23T03:08:06.005Z,6.30
2022-12-23T03:10:51.560Z,6.20
2022-12-23T03:13:27.348Z,6.30
2022-12-23T03:16:40.847Z,6.30
2022-12-23T03:19:19.461Z,6.40
2022-12-23T03:22:23.817Z,6.30
2022-12-23T03:25:05.828Z,6.30
2022-12-23T03:28:05.161Z,6.30
2022-12-23T03:30:32.009Z,6.40
2022-12-23T03:33:03.014Z,6.40
2022-12-23T03:35:36.637Z,6.40
2022-12-23T03:38:05.510Z,6.40
2022-12-23T03:40:57.773Z,6.40
2022-12-23T03:43:33.627Z,6.40
2022-12-23T03:46:03.282Z,6.40
2022-12-23T03:48:39.969Z,6.40
2022-12-23T03:51:12.981Z,6.50
2022-12-23T03:53:46.607Z,6.50
2022-12-23T03:56:20.981Z,6.50
2022-12-23T03:58:59.549Z,6.50
2022-12-23T04:01:29.538Z,6.60
2022-12-23T04:04:48.793Z,6.50
2022-12-23T04:07:27.569Z,6.60
2022-12-23T04:09:54.405Z,6.60
2022-12-23T04:12:22.842Z,6.70
2022-12-23T04:14:49.741Z,6.70
2022-12-23T04:17:19.376Z,6.70
2022-12-23T04:19:46.267Z,6.70
2022-12-23T04:22:16.313Z,6.70
2022-12-23T04:24:43.276Z,6.60
2022-12-23T04:27:12.416Z,6.60
2022-12-23T04:29:39.255Z,6.70
2022-12-23T04:32:06.309Z,6.70
2022-12-23T04:34:35.193Z,6.70
2022-12-23T04:37:04.456Z,6.70
2022-12-23T04:39:33.350Z,6.60
2022-12-23T04:42:00.154Z,6.60
2022-12-23T04:44:26.904Z,6.60
2022-12-23T04:46:53.771Z,6.60
2022-12-23T04:49:22.809Z,6.60
2022-12-23T04:51:49.574Z,6.60
2022-12-23T04:54:18.669Z,6.60
2022-12-23T04:56:45.870Z,6.60
2022-12-23T04:59:12.717Z,6.60
2022-12-23T05:01:39.711Z,6.70
2022-12-23T05:04:11.752Z,6.70
2022-12-23T05:06:39.000Z,6.60
2022-12-23T05:09:05.979Z,6.70
2022-12-23T05:11:37.115Z,6.70
2022-12-23T05:14:07.091Z,6.70
2022-12-23T05:16:34.383Z,6.60
2022-12-23T05:19:01.222Z,6.60
2022-12-23T05:21:28.032Z,6.60
2022-12-23T05:23:57.403Z,6.50
2022-12-23T05:26:24.230Z,6.50
2022-12-23T05:28:53.325Z,6.50
2022-12-23T05:31:20.186Z,6.50
2022-12-23T05:33:47.086Z,6.50
2022-12-23T05:36:14.324Z,6.50
2022-12-23T05:38:41.090Z,6.40
2022-12-23T05:41:07.979Z,6.40
2022-12-23T05:43:35.202Z,6.30
2022-12-23T05:46:02.027Z,6.30
2022-12-23T05:48:28.936Z,6.30
2022-12-23T05:50:55.725Z,6.30
2022-12-23T05:53:23.990Z,6.30
2022-12-23T05:55:50.816Z,6.30
2022-12-23T05:58:17.720Z,6.30
2022-12-23T06:00:44.529Z,6.20
2022-12-23T06:03:12.056Z,6.20
2022-12-23T06:05:39.841Z,6.20
2022-12-23T06:08:06.722Z,6.20
2022-12-23T06:10:33.530Z,6.20
2022-12-23T06:13:00.326Z,6.20
2022-12-23T06:15:27.163Z,6.10
2022-12-23T06:17:53.935Z,6.10
2022-12-23T06:20:25.782Z,6.10
2022-12-23T06:22:52.647Z,6.00
2022-12-23T06:25:19.470Z,6.00
2022-12-23T06:27:46.410Z,6.10
2022-12-23T06:30:15.721Z,6.00
2022-12-23T06:32:42.476Z,6.00
2022-12-23T06:35:09.609Z,6.00
2022-12-23T06:37:36.492Z,6.00
2022-12-23T06:40:03.841Z,6.00
2022-12-23T06:42:30.677Z,5.90
2022-12-23T06:44:59.981Z,6.00
2022-12-23T06:47:26.764Z,5.90
2022-12-23T06:49:58.332Z,5.90
2022-12-23T06:52:29.822Z,5.90
2022-12-23T06:54:56.676Z,6.00
2022-12-23T06:57:23.484Z,6.00
2022-12-23T06:59:50.323Z,5.90
2022-12-23T07:02:17.332Z,5.90
2022-12-23T07:04:46.834Z,6.00
2022-12-23T07:07:15.877Z,5.90
2022-12-23T07:09:44.895Z,5.90
2022-12-23T07:12:11.700Z,5.90
2022-12-23T07:14:38.491Z,5.90
2022-12-23T07:17:05.280Z,5.90
2022-12-23T07:19:32.085Z,5.90
2022-12-23T07:21:59.285Z,5.90
2022-12-23T07:24:26.109Z,5.90
2022-12-23T07:26:52.935Z,5.90
2022-12-23T07:29:19.697Z,5.90
2022-12-23T07:31:49.192Z,6.00
2022-12-23T07:34:16.110Z,5.90
2022-12-23T07:36:42.868Z,5.90
2022-12-23T07:39:11.896Z,5.90
2022-12-23T07:41:40.839Z,5.90
2022-12-23T07:44:11.964Z,5.90
2022-12-23T07:46:46.437Z,5.90
2022-12-23T07:49:13.773Z,5.90
2022-12-23T07:51:40.533Z,5.80
2022-12-23T07:54:09.593Z,5.80
2022-12-23T07:56:36.364Z,5.90
2022-12-23T07:59:03.180Z,6.00
2022-12-23T08:01:30.479Z,6.00
2022-12-23T08:03:57.370Z,6.00
2022-12-23T08:06:29.039Z,5.90
2022-12-23T08:08:56.200Z,6.00
2022-12-23T08:11:25.455Z,6.10
2022-12-23T08:13:52.899Z,6.00
2022-12-23T08:16:21.886Z,5.90
2022-12-23T08:18:48.907Z,5.90
2022-12-23T08:21:18.044Z,5.90
2022-12-23T08:23:45.290Z,5.90
2022-12-23T08:26:21.019Z,5.80
2022-12-23T08:28:48.080Z,5.90
2022-12-23T08:31:18.925Z,5.80
2022-12-23T08:33:50.260Z,5.80
2022-12-23T08:36:22.757Z,5.90
2022-12-23T08:38:55.476Z,6.00
2022-12-23T08:41:24.340Z,6.00
2022-12-23T08:43:51.453Z,6.00
2022-12-23T08:46:18.671Z,6.10
2022-12-23T08:48:49.504Z,6.00
2022-12-23T08:51:17.333Z,6.00
2022-12-23T08:53:46.665Z,6.10
2022-12-23T08:56:19.763Z,6.20
2022-12-23T08:58:53.017Z,6.10
2022-12-23T09:01:22.650Z,6.10
2022-12-23T09:03:51.826Z,6.30
2022-12-23T09:06:26.527Z,6.40
2022-12-23T09:08:55.723Z,6.40
2022-12-23T09:11:24.038Z,6.30
2022-12-23T09:13:50.834Z,6.40
2022-12-23T09:16:17.810Z,6.50
2022-12-23T09:18:46.779Z,6.50
2022-12-23T09:21:15.083Z,6.60
2022-12-23T09:23:43.994Z,6.60
2022-12-23T09:26:18.436Z,6.70
2022-12-23T09:28:45.197Z,6.80
2022-12-23T09:31:14.823Z,6.80
2022-12-23T09:33:43.899Z,6.90
2022-12-23T09:36:10.697Z,6.90
2022-12-23T09:38:38.030Z,6.90
2022-12-23T09:41:25.700Z,6.90
2022-12-23T09:43:58.399Z,6.80
2022-12-23T09:46:27.253Z,6.70
2022-12-23T09:49:13.169Z,6.80
2022-12-23T09:51:40.239Z,6.80
2022-12-23T09:54:34.149Z,6.70
2022-12-23T09:57:23.267Z,6.80
2022-12-23T10:00:03.833Z,6.70
2022-12-23T10:02:30.783Z,6.60
2022-12-23T10:05:31.650Z,6.70
2022-12-23T10:07:59.318Z,6.70
2022-12-23T10:10:49.980Z,6.80
2022-12-23T10:13:27.941Z,6.80
2022-12-23T10:15:55.091Z,6.90
2022-12-23T10:18:40.747Z,6.90
2022-12-23T10:21:42.213Z,6.90
2022-12-23T10:24:21.061Z,6.80
2022-12-23T10:27:01.459Z,6.90
2022-12-23T10:29:31.828Z,6.90
2022-12-23T10:32:17.181Z,6.90
2022-12-23T10:34:44.217Z,7.00
2022-12-23T10:37:19.658Z,6.90
2022-12-23T10:40:15.145Z,7.00
2022-12-23T10:43:27.278Z,7.00
2022-12-23T10:45:54.037Z,7.00
2022-12-23T10:48:38.007Z,7.00
2022-12-23T10:51:18.317Z,7.00
2022-12-23T10:53:59.372Z,7.10
2022-12-23T10:56:28.874Z,7.00
2022-12-23T10:58:56.928Z,7.00
2022-12-23T11:01:27.005Z,7.00
2022-12-23T11:04:13.422Z,7.00
2022-12-23T11:06:42.984Z,7.00
2022-12-23T11:09:18.208Z,7.00
2022-12-23T11:12:00.939Z,7.00
2022-12-23T11:14:41.704Z,7.10
2022-12-23T11:17:27.777Z,7.10
2022-12-23T11:20:12.803Z,7.10
2022-12-23T11:22:49.864Z,7.10
2022-12-23T11:25:34.477Z,7.10
2022-12-23T11:28:10.287Z,7.10
2022-12-23T11:30:39.279Z,7.10
2022-12-23T11:33:14.800Z,7.10
2022-12-23T11:35:41.681Z,7.10
2022-12-23T11:38:11.083Z,7.10
2022-12-23T11:40:38.185Z,7.10
2022-12-23T11:43:13.656Z,7.00
2022-12-23T11:45:40.563Z,7.10
2022-12-23T11:48:31.974Z,7.00
2022-12-23T11:51:02.708Z,7.00
2022-12-23T11:53:30.013Z,6.90
2022-12-23T11:56:06.801Z,7.00
2022-12-23T11:58:45.031Z,7.00
2022-12-23T12:01:23.172Z,7.00
2022-12-23T12:04:00.724Z,7.00
2022-12-23T12:06:27.764Z,7.00
2022-12-23T12:08:55.922Z,7.00
2022-12-23T12:11:27.200Z,7.00
2022-12-23T12:14:04.066Z,7.00
2022-12-23T12:16:30.959Z,7.00
2022-12-23T12:19:00.780Z,7.00
2022-12-23T12:21:29.476Z,7.00
2022-12-23T12:24:17.860Z,7.00
2022-12-23T12:26:51.025Z,7.00
2022-12-23T12:29:23.924Z,7.00
2022-12-23T12:31:55.639Z,7.10
2022-12-23T12:34:27.612Z,7.00
2022-12-23T12:37:10.732Z,7.00
2022-12-23T12:39:43.471Z,7.10
2022-12-23T12:42:19.706Z,7.10
2022-12-23T12:45:02.456Z,7.00
2022-12-23T12:47:58.187Z,7.00
2022-12-23T12:50:34.048Z,6.90
2022-12-23T12:53:11.613Z,7.00
2022-12-23T12:55:42.312Z,7.00
2022-12-23T12:58:17.915Z,7.00
2022-12-23T13:01:05.049Z,7.00
2022-12-23T13:03:52.631Z,7.00
2022-12-23T13:06:56.929Z,7.00
2022-12-23T13:09:35.008Z,7.10
2022-12-23T13:12:04.525Z,7.10
2022-12-23T13:14:53.303Z,7.10
2022-12-23T13:17:40.562Z,7.00
2022-12-23T13:20:16.451Z,7.00
2022-12-23T13:22:43.480Z,7.10
2022-12-23T13:25:16.374Z,7.00
2022-12-23T13:28:07.268Z,7.00
2022-12-23T13:30:38.325Z,7.00
2022-12-23T13:33:23.189Z,6.90
2022-12-23T13:36:10.495Z,6.90
2022-12-23T13:38:40.007Z,6.80
2022-12-23T13:41:15.880Z,6.80
2022-12-23T13:43:53.849Z,6.80
2022-12-23T13:46:23.155Z,6.90
2022-12-23T13:48:56.077Z,6.80
2022-12-23T13:51:30.878Z,6.70
2022-12-23T13:54:20.315Z,6.70
2022-12-23T13:57:08.117Z,6.70
2022-12-23T13:59:47.243Z,6.70
2022-12-23T14:02:36.554Z,6.70
2022-12-23T14:05:16.391Z,6.70
2022-12-23T14:07:43.680Z,6.70
2022-12-23T14:10:12.152Z,6.80
2022-12-23T14:12:39.858Z,6.80
2022-12-23T14:15:31.815Z,6.80
2022-12-23T14:18:23.152Z,6.80
2022-12-23T14:20:53.440Z,6.80
2022-12-23T14:23:33.359Z,6.80
2022-12-23T14:26:41.199Z,6.80
2022-12-23T14:29:38.772Z,6.80
2022-12-23T14:32:17.962Z,6.80
2022-12-23T14:35:15.558Z,6.90
2022-12-23T14:37:42.511Z,6.80
2022-12-23T14:40:40.361Z,6.80
2022-12-23T14:43:22.775Z,6.80
2022-12-23T14:45:54.043Z,6.80
2022-12-23T14:48:44.435Z,6.80
2022-12-23T14:51:16.708Z,6.80
2022-12-23T14:53:53.709Z,6.80
2022-12-23T14:56:27.821Z,6.80
2022-12-23T14:59:09.304Z,6.80
2022-12-23T15:01:51.085Z,6.80
2022-12-23T15:04:23.463Z,6.80
2022-12-23T15:07:03.153Z,6.70
2022-12-23T15:09:31.810Z,6.70
2022-12-23T15:12:04.764Z,6.70
2022-12-23T15:14:32.986Z,6.80
2022-12-23T15:16:59.973Z,6.80
2022-12-23T15:19:31.494Z,6.90
2022-12-23T15:22:20.712Z,6.80
2022-12-23T15:24:50.789Z,6.90
2022-12-23T15:27:29.619Z,6.90
2022-12-23T15:30:02.047Z,6.90
2022-12-23T15:32:28.952Z,6.90
2022-12-23T15:35:05.172Z,6.90
2022-12-23T15:37:32.711Z,6.80
2022-12-23T15:40:06.516Z,6.90
2022-12-23T15:42:43.332Z,6.80
2022-12-23T15:45:37.472Z,6.80
2022-12-23T15:48:05.375Z,6.80
2022-12-23T15:50:40.411Z,6.80
2022-12-23T15:53:15.853Z,6.90
2022-12-23T15:55:42.676Z,6.80
2022-12-23T15:58:18.856Z,6.80
2022-12-23T16:00:51.715Z,6.90
2022-12-23T16:03:34.729Z,6.90
2022-12-23T16:06:17.043Z,7.00
2022-12-23T16:08:55.153Z,6.90
2022-12-23T16:11:24.360Z,6.90
2022-12-23T16:13:58.311Z,6.90
2022-12-23T16:16:31.547Z,6.90
2022-12-23T16:19:01.316Z,6.80
2022-12-23T16:21:37.804Z,6.90
2022-12-23T16:24:07.856Z,6.90
2022-12-23T16:26:43.291Z,6.90
2022-12-23T16:29:10.091Z,6.90
2022-12-23T16:31:48.295Z,6.90
2022-12-23T16:34:21.133Z,6.90
2022-12-23T16:36:47.961Z,7.00
2022-12-23T16:39:24.232Z,7.00
2022-12-23T16:41:53.560Z,7.00
2022-12-23T16:44:20.392Z,7.00
2022-12-23T16:46:52.812Z,7.10
2022-12-23T16:49:21.059Z,7.10
2022-12-23T16:51:50.359Z,7.10
2022-12-23T16:54:22.412Z,7.10
2022-12-23T16:56:50.089Z,7.20
2022-12-23T16:59:16.937Z,7.10
2022-12-23T17:01:47.385Z,7.10
2022-12-23T17:04:14.454Z,7.20
2022-12-23T17:06:43.507Z,7.10
2022-12-23T17:09:10.489Z,7.10
2022-12-23T17:11:48.031Z,7.20
2022-12-23T17:14:18.000Z,7.20
2022-12-23T17:16:45.363Z,7.20
2022-12-23T17:19:12.324Z,7.20
2022-12-23T17:21:41.976Z,7.30
2022-12-23T17:24:25.566Z,7.30
2022-12-23T17:26:55.214Z,7.30
2022-12-23T17:29:22.056Z,7.30
2022-12-23T17:31:49.173Z,7.30
2022-12-23T17:34:20.434Z,7.30
2022-12-23T17:36:50.995Z,7.30
2022-12-23T17:39:20.629Z,7.30
2022-12-23T17:41:47.429Z,7.40
2022-12-23T17:44:14.829Z,7.40
2022-12-23T17:46:43.918Z,7.40
2022-12-23T17:49:10.750Z,7.40
2022-12-23T17:51:40.278Z,7.50
2022-12-23T17:54:07.123Z,7.40
2022-12-23T17:56:34.038Z,7.40
2022-12-23T17:59:00.793Z,7.50
2022-12-23T18:01:29.840Z,7.50
2022-12-23T18:03:57.360Z,7.50
2022-12-23T18:06:25.000Z,7.40
2022-12-23T18:08:56.971Z,7.50
2022-12-23T18:11:27.606Z,7.50
2022-12-23T18:13:54.441Z,7.60
2022-12-23T18:16:23.731Z,7.60
2022-12-23T18:18:51.550Z,7.60
2022-12-23T18:21:21.802Z,7.60
2022-12-23T18:23:50.865Z,7.60
2022-12-23T18:26:17.722Z,7.60
2022-12-23T18:28:46.701Z,7.60
2022-12-23T18:31:18.510Z,7.60
2022-12-23T18:33:45.353Z,7.60
2022-12-23T18:36:24.413Z,7.60
2022-12-23T18:38:53.584Z,7.70
2022-12-23T18:41:21.511Z,7.70
2022-12-23T18:43:48.408Z,7.70
2022-12-23T18:46:17.651Z,7.70
2022-12-23T18:48:51.518Z,7.70
2022-12-23T18:51:21.026Z,7.60
2022-12-23T18:53:48.028Z,7.60
2022-12-23T18:56:19.304Z,7.60
2022-12-23T18:58:46.103Z,7.60
2022-12-23T19:01:13.865Z,7.60
2022-12-23T19:03:40.898Z,7.60
2022-12-23T19:06:08.244Z,7.50
2022-12-23T19:08:37.653Z,7.50
2022-12-23T19:11:18.390Z,7.60
2022-12-23T19:13:50.321Z,7.60
2022-12-23T19:16:21.197Z,7.60
2022-12-23T19:18:51.690Z,7.60
2022-12-23T19:21:21.834Z,7.60
2022-12-23T19:23:48.832Z,7.50
2022-12-23T19:26:20.595Z,7.60
2022-12-23T19:28:48.639Z,7.50
2022-12-23T19:31:15.962Z,7.50
2022-12-23T19:33:49.298Z,7.40
2022-12-23T19:36:27.035Z,7.40
2022-12-23T19:38:53.909Z,7.40
2022-12-23T19:41:20.722Z,7.30
2022-12-23T19:43:47.605Z,7.20
2022-12-23T19:46:15.093Z,7.20
2022-12-23T19:48:42.038Z,7.30
2022-12-23T19:51:10.623Z,7.30
2022-12-23T19:53:38.485Z,7.30
2022-12-23T19:56:15.465Z,7.40
2022-12-23T19:58:45.176Z,7.40
2022-12-23T20:01:16.825Z,7.40
2022-12-23T20:03:44.130Z,7.40
2022-12-23T20:06:38.314Z,7.50
2022-12-23T20:09:08.704Z,7.50
2022-12-23T20:11:39.693Z,7.50
2022-12-23T20:14:09.574Z,7.50
2022-12-23T20:16:36.685Z,7.50
2022-12-23T20:19:03.645Z,7.50
2022-12-23T20:21:33.033Z,7.40
2022-12-23T20:24:00.004Z,7.40
2022-12-23T20:26:27.730Z,7.50
2022-12-23T20:28:54.821Z,7.40
2022-12-23T20:31:29.002Z,7.40
2022-12-23T20:33:58.579Z,7.30
2022-12-23T20:36:27.220Z,7.20
2022-12-23T20:38:54.215Z,7.30
2022-12-23T20:41:22.406Z,7.30
2022-12-23T20:44:23.360Z,7.30
2022-12-23T20:46:41.381Z,7.30
2022-12-23T20:49:08.491Z,7.40
2022-12-23T20:51:35.254Z,7.40
2022-12-23T20:54:02.122Z,7.40
2022-12-23T20:56:30.399Z,7.40
2022-12-23T20:59:03.965Z,7.40
2022-12-23T21:01:40.083Z,7.40
2022-12-23T21:04:08.958Z,7.50
2022-12-23T21:06:38.466Z,7.40
2022-12-23T21:09:07.186Z,7.50
2022-12-23T21:11:37.448Z,7.50
2022-12-23T21:14:07.822Z,7.30
2022-12-23T21:16:35.860Z,7.30
2022-12-23T21:19:15.823Z,7.20
2022-12-23T21:21:45.122Z,7.20
2022-12-23T21:24:14.406Z,7.10
2022-12-23T21:26:43.857Z,7.10
2022-12-23T21:29:10.858Z,7.10
2022-12-23T21:31:39.110Z,7.10
2022-12-23T21:34:06.324Z,7.20
2022-12-23T21:36:35.258Z,7.20
2022-12-23T21:39:04.948Z,7.20
2022-12-23T21:41:35.388Z,7.20
2022-12-23T21:44:04.612Z,7.20
2022-12-23T21:46:31.512Z,7.20
2022-12-23T21:49:00.787Z,7.30
2022-12-23T21:51:39.388Z,7.30
2022-12-23T21:54:07.351Z,7.30
2022-12-23T21:56:39.554Z,7.40
2022-12-23T21:59:08.419Z,7.40
2022-12-23T22:01:38.071Z,7.40
2022-12-23T22:04:05.038Z,7.40
2022-12-23T22:06:41.415Z,7.30
2022-12-23T22:09:08.357Z,7.10
2022-12-23T22:11:38.820Z,7.10
2022-12-23T22:14:06.766Z,7.10
2022-12-23T22:16:33.694Z,7.10
2022-12-23T22:19:06.722Z,7.00
2022-12-23T22:21:33.636Z,7.00
2022-12-23T22:24:00.480Z,7.00
2022-12-23T22:26:33.107Z,7.00
2022-12-23T22:29:01.264Z,7.00
2022-12-23T22:31:37.446Z,7.00
2022-12-23T22:34:06.803Z,7.00
2022-12-23T22:36:36.426Z,7.10
2022-12-23T22:39:03.558Z,7.10
2022-12-23T22:41:33.473Z,7.20
2022-12-23T22:44:07.996Z,7.20
2022-12-23T22:46:34.789Z,7.20
2022-12-23T22:49:01.745Z,7.30
2022-12-23T22:51:31.128Z,7.30
2022-12-23T22:53:57.988Z,7.20
2022-12-23T22:56:27.459Z,7.20
2022-12-23T22:58:58.786Z,7.30
2022-12-23T23:01:29.435Z,7.30
2022-12-23T23:03:58.066Z,7.30
2022-12-23T23:06:25.903Z,7.40
2022-12-23T23:08:52.980Z,7.40
2022-12-23T23:11:19.800Z,7.40
2022-12-23T23:13:46.611Z,7.40
2022-12-23T23:16:13.550Z,7.40
2022-12-23T23:18:40.462Z,7.40
2022-12-23T23:21:13.667Z,7.40
2022-12-23T23:23:40.481Z,7.40
2022-12-23T23:26:09.150Z,7.40
2022-12-23T23:28:39.377Z,7.40
2022-12-23T23:31:40.381Z,7.40
2022-12-23T23:34:00.341Z,7.40
2022-12-23T23:36:27.231Z,7.40
2022-12-23T23:38:54.171Z,7.30
2022-12-23T23:41:25.669Z,7.30
2022-12-23T23:43:55.012Z,7.30
2022-12-23T23:46:21.929Z,7.30
2022-12-23T23:48:48.769Z,7.30
2022-12-23T23:51:15.652Z,7.30
2022-12-23T23:53:42.497Z,7.20
2022-12-23T23:56:12.043Z,7.10
2022-12-23T23:58:38.798Z,7.10
